createdAt,value
2018-07-28T00:00:16.064Z,0.575000
2018-07-28T00:03:15.447Z,0.525000
2018-07-28T00:06:15.919Z,0.325000
2018-07-28T00:09:15.205Z,0.250000
2018-07-28T00:12:15.483Z,0.300000
2018-07-28T00:15:16.075Z,0.200000
2018-07-28T00:18:15.596Z,0.187500
2018-07-28T00:21:15.831Z,1.150000
2018-07-28T00:24:15.424Z,0.125000
2018-07-28T00:27:15.946Z,0.200000
2018-07-28T00:30:15.404Z,0.287500
2018-07-28T00:33:15.765Z,0.175000
2018-07-28T00:36:15.138Z,0.762500
2018-07-28T00:39:15.529Z,0.200000
2018-07-28T00:42:15.852Z,0.212500
2018-07-28T00:45:15.167Z,0.187500
2018-07-28T00:48:15.498Z,0.237500
2018-07-28T00:51:15.787Z,0.187500
2018-07-28T00:54:15.161Z,0.375000
2018-07-28T00:57:15.418Z,0.937500
2018-07-28T01:00:15.910Z,0.287500
2018-07-28T01:03:15.413Z,0.462500
2018-07-28T01:06:15.758Z,0.200000
2018-07-28T01:09:15.102Z,0.250000
2018-07-28T01:12:15.222Z,0.625000
2018-07-28T01:15:15.553Z,0.362500
2018-07-28T01:18:15.919Z,0.200000
2018-07-28T01:21:15.270Z,1.025000
2018-07-28T01:24:15.515Z,0.625000
2018-07-28T01:27:15.832Z,0.287500
2018-07-28T01:30:15.005Z,0.162500
2018-07-28T01:33:15.847Z,0.325000
2018-07-28T01:36:15.020Z,0.475000
2018-07-28T01:39:15.233Z,0.187500
2018-07-28T01:42:15.358Z,0.200000
2018-07-28T01:45:15.530Z,0.175000
2018-07-28T01:48:15.731Z,0.212500
2018-07-28T01:51:15.017Z,0.437500
2018-07-28T01:54:15.132Z,0.337500
2018-07-28T01:57:20.367Z,0.200000
2018-07-28T02:00:15.611Z,0.175000
2018-07-28T02:03:16.817Z,0.537500
2018-07-28T02:06:15.072Z,0.312500
2018-07-28T02:09:15.309Z,0.275000
2018-07-28T02:12:15.474Z,0.137500
2018-07-28T02:15:15.639Z,0.187500
2018-07-28T02:18:15.873Z,0.300000
2018-07-28T02:21:14.963Z,0.212500
2018-07-28T02:24:15.151Z,0.175000
2018-07-28T02:27:15.308Z,0.137500
2018-07-28T02:30:15.532Z,0.200000
2018-07-28T02:33:15.733Z,0.337500
2018-07-28T02:36:15.948Z,0.487500
2018-07-28T02:39:15.530Z,0.275000
2018-07-28T02:42:15.703Z,0.287500
2018-07-28T02:45:15.913Z,0.187500
2018-07-28T02:48:15.209Z,0.187500
2018-07-28T02:51:15.361Z,0.187500
2018-07-28T02:54:15.520Z,0.300000
2018-07-28T02:57:15.686Z,0.200000
2018-07-28T03:00:16.114Z,0.187500
2018-07-28T03:03:15.287Z,0.200000
2018-07-28T03:06:15.492Z,0.350000
2018-07-28T03:09:15.728Z,0.325000
2018-07-28T03:12:14.995Z,0.125000
2018-07-28T03:15:15.373Z,0.575000
2018-07-28T03:18:15.272Z,0.137500
2018-07-28T03:21:15.555Z,0.200000
2018-07-28T03:24:15.738Z,0.175000
2018-07-28T03:27:14.998Z,0.212500
2018-07-28T03:30:15.267Z,0.212500
2018-07-28T03:33:14.992Z,0.312500
2018-07-28T03:36:15.213Z,0.837500
2018-07-28T03:39:15.308Z,0.237500
2018-07-28T03:42:15.457Z,1.125000
2018-07-28T03:45:15.551Z,0.100000
2018-07-28T03:48:15.806Z,0.537500
2018-07-28T03:51:14.952Z,0.250000
2018-07-28T03:54:15.171Z,0.462500
2018-07-28T03:57:15.199Z,0.212500
2018-07-28T04:00:20.656Z,0.175000
2018-07-28T04:03:15.856Z,0.162500
2018-07-28T04:06:15.034Z,0.250000
2018-07-28T04:09:15.140Z,0.212500
2018-07-28T04:12:15.357Z,0.212500
2018-07-28T04:15:15.549Z,0.325000
2018-07-28T04:18:15.734Z,0.287500
2018-07-28T04:21:16.077Z,0.200000
2018-07-28T04:24:15.293Z,0.300000
2018-07-28T04:27:15.717Z,0.250000
2018-07-28T04:30:15.950Z,0.262500
2018-07-28T04:33:15.227Z,0.562500
2018-07-28T04:36:15.415Z,0.200000
2018-07-28T04:39:15.582Z,0.337500
2018-07-28T04:42:15.789Z,0.137500
2018-07-28T04:45:15.792Z,0.287500
2018-07-28T04:48:15.093Z,0.200000
2018-07-28T04:51:15.380Z,0.225000
2018-07-28T04:54:15.641Z,0.237500
2018-07-28T04:57:21.053Z,0.325000
2018-07-28T05:00:15.734Z,0.200000
2018-07-28T05:03:25.287Z,0.312500
2018-07-28T05:06:15.536Z,0.425000
2018-07-28T05:09:15.971Z,0.537500
2018-07-28T05:12:15.575Z,0.975000
2018-07-28T05:15:15.296Z,0.587500
2018-07-28T05:18:15.980Z,0.762500
2018-07-28T05:21:15.679Z,0.862500
2018-07-28T05:24:15.407Z,1.350000
2018-07-28T05:27:16.015Z,1.625000
2018-07-28T05:30:15.836Z,1.300000
2018-07-28T05:33:15.549Z,1.412500
2018-07-28T05:36:16.135Z,1.437500
2018-07-28T05:39:15.924Z,1.575000
2018-07-28T05:42:15.534Z,2.237500
2018-07-28T05:45:16.024Z,1.612500
2018-07-28T05:48:15.731Z,2.512500
2018-07-28T05:51:15.416Z,2.562500
2018-07-28T05:54:16.222Z,3.762500
2018-07-28T05:57:15.982Z,4.637500
2018-07-28T06:00:15.721Z,2.162500
2018-07-28T06:03:15.327Z,1.987500
2018-07-28T06:06:16.059Z,4.475000
2018-07-28T06:09:15.694Z,2.587500
2018-07-28T06:12:15.409Z,1.575000
2018-07-28T06:15:16.002Z,1.900000
2018-07-28T06:18:15.966Z,2.312500
2018-07-28T06:21:15.657Z,1.300000
2018-07-28T06:24:15.489Z,1.537500
2018-07-28T06:27:15.527Z,0.612500
2018-07-28T06:30:16.262Z,0.712500
2018-07-28T06:33:15.917Z,1.112500
2018-07-28T06:36:15.494Z,0.362500
2018-07-28T06:39:16.216Z,0.987500
2018-07-28T06:42:15.808Z,0.712500
2018-07-28T06:45:15.841Z,1.412500
2018-07-28T06:48:15.666Z,2.550000
2018-07-28T06:51:15.251Z,2.012500
2018-07-28T06:54:15.804Z,2.662500
2018-07-28T06:57:15.408Z,2.187500
2018-07-28T07:00:16.044Z,1.000000
2018-07-28T07:03:15.722Z,1.125000
2018-07-28T07:06:16.245Z,0.612500
2018-07-28T07:09:15.951Z,1.750000
2018-07-28T07:12:15.650Z,1.262500
2018-07-28T07:15:16.442Z,0.962500
2018-07-28T07:18:16.235Z,0.987500
2018-07-28T07:21:15.964Z,0.637500
2018-07-28T07:24:15.692Z,0.787500
2018-07-28T07:27:15.355Z,1.075000
2018-07-28T07:30:15.848Z,1.487500
2018-07-28T07:33:15.451Z,0.312500
2018-07-28T07:36:16.201Z,0.600000
2018-07-28T07:39:15.764Z,0.375000
2018-07-28T07:42:16.169Z,0.725000
2018-07-28T07:45:15.762Z,0.350000
2018-07-28T07:48:16.098Z,0.325000
2018-07-28T07:51:15.580Z,0.350000
2018-07-28T07:54:15.595Z,0.462500
2018-07-28T07:57:16.086Z,0.100000
2018-07-28T08:00:15.557Z,0.350000
2018-07-28T08:03:15.196Z,0.200000
2018-07-28T08:06:15.659Z,0.287500
2018-07-28T08:09:16.157Z,0.187500
2018-07-28T08:12:15.663Z,0.287500
2018-07-28T08:15:15.386Z,0.412500
2018-07-28T08:18:16.049Z,0.325000
2018-07-28T08:21:15.686Z,0.237500
2018-07-28T08:24:15.406Z,0.187500
2018-07-28T08:27:16.147Z,0.225000
2018-07-28T08:30:15.773Z,0.287500
2018-07-28T08:33:15.541Z,0.612500
2018-07-28T08:36:16.204Z,0.500000
2018-07-28T08:39:15.929Z,0.400000
2018-07-28T08:42:15.528Z,0.325000
2018-07-28T08:45:16.196Z,0.500000
2018-07-28T08:48:16.048Z,0.375000
2018-07-28T08:51:15.723Z,0.937500
2018-07-28T08:54:16.238Z,0.650000
2018-07-28T08:57:15.861Z,0.562500
2018-07-28T09:00:15.450Z,1.275000
2018-07-28T09:03:16.265Z,0.975000
2018-07-28T09:06:15.856Z,0.962500
2018-07-28T09:09:15.531Z,1.412500
2018-07-28T09:12:16.211Z,1.537500
2018-07-28T09:15:15.928Z,1.412500
2018-07-28T09:18:15.764Z,0.787500
2018-07-28T09:21:15.701Z,0.825000
2018-07-28T09:24:16.287Z,0.762500
2018-07-28T09:27:16.101Z,1.150000
2018-07-28T09:30:15.826Z,0.837500
2018-07-28T09:33:15.485Z,0.775000
2018-07-28T09:36:16.242Z,1.487500
2018-07-28T09:39:16.055Z,1.162500
2018-07-28T09:42:15.668Z,1.975000
2018-07-28T09:45:16.336Z,2.987500
2018-07-28T09:48:15.946Z,2.000000
2018-07-28T09:51:15.731Z,2.987500
2018-07-28T09:54:15.384Z,3.775000
2018-07-28T09:57:16.188Z,3.950000
2018-07-28T10:00:16.017Z,3.237500
2018-07-28T10:03:16.058Z,3.412500
2018-07-28T10:06:15.437Z,4.012500
2018-07-28T10:09:16.066Z,3.412500
2018-07-28T10:12:15.708Z,3.150000
2018-07-28T10:15:15.389Z,1.325000
2018-07-28T10:18:16.113Z,2.762500
2018-07-28T10:21:15.808Z,2.275000
2018-07-28T10:24:15.459Z,2.062500
2018-07-28T10:27:16.058Z,2.300000
2018-07-28T10:30:15.780Z,1.800000
2018-07-28T10:33:15.637Z,1.187500
2018-07-28T10:36:16.443Z,1.600000
2018-07-28T10:39:16.168Z,1.800000
2018-07-28T10:42:15.736Z,1.600000
2018-07-28T10:45:15.422Z,2.012500
2018-07-28T10:48:16.038Z,2.037500
2018-07-28T10:51:15.579Z,2.200000
2018-07-28T10:54:16.238Z,3.750000
2018-07-28T10:57:15.790Z,3.612500
2018-07-28T11:00:16.034Z,4.425000
2018-07-28T11:03:15.772Z,3.850000
2018-07-28T11:06:15.482Z,2.775000
2018-07-28T11:09:16.163Z,2.525000
2018-07-28T11:12:15.974Z,2.937500
2018-07-28T11:15:15.589Z,3.487500
2018-07-28T11:18:16.214Z,3.762500
2018-07-28T11:21:15.879Z,3.862500
2018-07-28T11:24:15.909Z,3.050000
2018-07-28T11:27:15.528Z,2.412500
2018-07-28T11:30:16.217Z,5.462500
2018-07-28T11:33:15.832Z,3.375000
2018-07-28T11:36:16.269Z,3.787500
2018-07-28T11:39:16.542Z,4.937500
2018-07-28T11:42:16.370Z,3.937500
2018-07-28T11:45:15.579Z,4.175000
2018-07-28T11:48:16.274Z,3.875000
2018-07-28T11:51:15.894Z,2.600000
2018-07-28T11:54:15.493Z,2.925000
2018-07-28T11:57:16.145Z,3.350000
2018-07-28T12:00:16.010Z,2.800000
2018-07-28T12:03:15.824Z,3.337500
2018-07-28T12:06:15.464Z,4.250000
2018-07-28T12:09:16.133Z,3.125000
2018-07-28T12:12:15.940Z,2.575000
2018-07-28T12:15:15.583Z,2.887500
2018-07-28T12:18:16.316Z,2.662500
2018-07-28T12:21:15.912Z,4.450000
2018-07-28T12:24:15.668Z,2.787500
2018-07-28T12:27:15.337Z,2.512500
2018-07-28T12:30:16.149Z,2.425000
2018-07-28T12:33:15.806Z,1.550000
2018-07-28T12:36:15.530Z,1.612500
2018-07-28T12:39:16.203Z,2.900000
2018-07-28T12:42:15.871Z,1.625000
2018-07-28T12:45:15.416Z,1.475000
2018-07-28T12:48:16.101Z,1.675000
2018-07-28T12:51:15.848Z,2.525000
2018-07-28T12:54:15.555Z,1.950000
2018-07-28T12:57:16.222Z,3.312500
2018-07-28T13:00:15.793Z,2.062500
2018-07-28T13:03:15.394Z,1.025000
2018-07-28T13:06:16.053Z,1.337500
2018-07-28T13:09:15.625Z,2.587500
2018-07-28T13:12:16.254Z,1.200000
2018-07-28T13:15:15.933Z,1.425000
2018-07-28T13:18:15.701Z,2.425000
2018-07-28T13:21:15.490Z,1.162500
2018-07-28T13:24:16.123Z,0.625000
2018-07-28T13:27:15.893Z,0.587500
2018-07-28T13:30:15.578Z,0.637500
2018-07-28T13:33:16.336Z,0.650000
2018-07-28T13:36:16.102Z,0.662500
2018-07-28T13:39:15.956Z,0.537500
2018-07-28T13:42:15.700Z,0.362500
2018-07-28T13:45:15.687Z,0.837500
2018-07-28T13:48:16.313Z,0.612500
2018-07-28T13:51:16.129Z,1.462500
2018-07-28T13:54:15.884Z,0.562500
2018-07-28T13:57:15.471Z,0.387500
2018-07-28T14:00:15.555Z,1.075000
2018-07-28T14:03:15.518Z,0.725000
2018-07-28T14:06:16.240Z,0.837500
2018-07-28T14:09:21.015Z,0.725000
2018-07-28T14:12:15.718Z,0.900000
2018-07-28T14:15:16.247Z,0.437500
2018-07-28T14:18:16.064Z,1.000000
2018-07-28T14:21:16.034Z,1.362500
2018-07-28T14:24:15.698Z,0.500000
2018-07-28T14:27:15.441Z,1.537500
2018-07-28T14:30:16.253Z,1.150000
2018-07-28T14:33:16.035Z,0.900000
2018-07-28T14:36:15.689Z,1.450000
2018-07-28T14:39:15.412Z,0.825000
2018-07-28T14:42:16.202Z,0.875000
2018-07-28T14:45:15.657Z,1.275000
2018-07-28T14:48:16.682Z,1.637500
2018-07-28T14:51:15.359Z,0.462500
2018-07-28T14:54:16.019Z,0.737500
2018-07-28T14:57:15.885Z,0.900000
2018-07-28T15:00:16.485Z,0.612500
2018-07-28T15:03:15.395Z,0.825000
2018-07-28T15:06:16.164Z,1.162500
2018-07-28T15:09:15.919Z,1.762500
2018-07-28T15:12:15.653Z,0.850000
2018-07-28T15:15:16.351Z,0.800000
2018-07-28T15:18:16.092Z,0.662500
2018-07-28T15:21:15.933Z,0.937500
2018-07-28T15:24:15.542Z,0.512500
2018-07-28T15:27:16.152Z,0.462500
2018-07-28T15:30:15.996Z,0.537500
2018-07-28T15:33:15.569Z,0.425000
2018-07-28T15:36:16.239Z,1.112500
2018-07-28T15:39:16.145Z,0.525000
2018-07-28T15:42:15.755Z,0.512500
2018-07-28T15:45:15.578Z,1.000000
2018-07-28T15:48:17.400Z,0.912500
2018-07-28T15:51:15.431Z,0.387500
2018-07-28T15:54:16.019Z,1.437500
2018-07-28T15:57:15.645Z,0.612500
2018-07-28T16:00:15.411Z,0.375000
2018-07-28T16:03:16.023Z,0.750000
2018-07-28T16:06:16.202Z,1.687500
2018-07-28T16:09:15.837Z,0.350000
2018-07-28T16:12:15.412Z,1.375000
2018-07-28T16:15:16.026Z,0.975000
2018-07-28T16:18:15.752Z,0.762500
2018-07-28T16:21:15.451Z,1.625000
2018-07-28T16:24:16.177Z,4.625000
2018-07-28T16:27:15.780Z,2.037500
2018-07-28T16:30:15.564Z,1.825000
2018-07-28T16:33:16.194Z,0.912500
2018-07-28T16:36:15.867Z,1.037500
2018-07-28T16:39:15.480Z,0.950000
2018-07-28T16:42:16.425Z,1.125000
2018-07-28T16:45:16.047Z,0.775000
2018-07-28T16:48:15.668Z,0.425000
2018-07-28T16:51:16.272Z,1.087500
2018-07-28T16:54:16.088Z,0.887500
2018-07-28T16:57:15.728Z,0.850000
2018-07-28T17:00:15.394Z,0.887500
2018-07-28T17:03:16.172Z,1.012500
2018-07-28T17:06:16.364Z,0.387500
2018-07-28T17:09:15.968Z,1.062500
2018-07-28T17:12:15.555Z,0.775000
2018-07-28T17:15:16.443Z,1.112500
2018-07-28T17:18:16.146Z,1.262500
2018-07-28T17:21:15.895Z,0.550000
2018-07-28T17:24:16.091Z,0.787500
2018-07-28T17:27:15.793Z,1.400000
2018-07-28T17:30:15.811Z,3.187500
2018-07-28T17:33:15.839Z,1.162500
2018-07-28T17:36:15.878Z,1.387500
2018-07-28T17:39:16.034Z,1.062500
2018-07-28T17:42:16.183Z,2.837500
2018-07-28T17:45:16.408Z,2.412500
2018-07-28T17:48:16.557Z,1.637500
2018-07-28T17:51:16.002Z,1.700000
2018-07-28T17:54:16.424Z,1.137500
2018-07-28T17:57:16.538Z,2.287500
2018-07-28T18:00:16.697Z,1.262500
2018-07-28T18:03:15.851Z,1.275000
2018-07-28T18:06:16.034Z,1.125000
2018-07-28T18:09:16.449Z,0.362500
2018-07-28T18:12:15.707Z,1.012500
2018-07-28T18:15:15.831Z,0.437500
2018-07-28T18:18:32.502Z,1.012500
2018-07-28T18:21:15.438Z,4.287500
2018-07-28T18:24:15.398Z,3.262500
2018-07-28T18:27:15.517Z,2.387500
2018-07-28T18:30:16.268Z,2.225000
2018-07-28T18:33:15.981Z,5.100000
2018-07-28T18:36:15.573Z,5.450000
2018-07-28T18:39:15.443Z,3.175000
2018-07-28T18:42:33.705Z,2.262500
2018-07-28T19:05:50.546Z,0.687500
2018-07-28T19:06:16.263Z,0.787500
2018-07-28T19:09:16.075Z,0.562500
2018-07-28T19:12:15.632Z,0.387500
2018-07-28T19:15:16.020Z,0.700000
2018-07-28T19:18:17.032Z,1.200000
2018-07-28T19:21:16.807Z,0.675000
2018-07-28T19:24:16.028Z,0.725000
2018-07-28T19:27:15.697Z,0.462500
2018-07-28T19:30:15.697Z,1.150000
2018-07-28T19:33:15.449Z,0.425000
2018-07-28T19:36:15.290Z,1.137500
2018-07-28T19:39:16.017Z,0.800000
2018-07-28T19:42:16.262Z,0.512500
2018-07-28T19:45:16.068Z,0.500000
2018-07-28T19:48:16.024Z,0.825000
2018-07-28T19:51:15.989Z,0.500000
2018-07-28T19:54:16.099Z,0.725000
2018-07-28T19:57:16.209Z,1.237500
2018-07-28T20:00:16.149Z,1.112500
2018-07-28T20:03:17.157Z,1.812500
2018-07-28T20:06:17.118Z,0.600000
2018-07-28T20:09:21.553Z,1.037500
2018-07-28T20:12:25.944Z,1.587500
2018-07-28T20:15:19.544Z,1.025000
2018-07-28T20:18:17.824Z,0.600000
2018-07-28T20:21:23.376Z,1.212500
2018-07-28T20:24:28.071Z,0.875000
2018-07-28T20:27:31.982Z,0.387500
2018-07-28T20:30:15.634Z,1.300000
2018-07-28T20:33:15.697Z,0.887500
2018-07-28T20:36:15.369Z,0.475000
2018-07-28T20:39:16.379Z,1.337500
2018-07-28T20:42:15.379Z,1.075000
2018-07-28T20:45:15.389Z,0.537500
2018-07-28T20:48:15.881Z,0.437500
2018-07-28T20:51:15.758Z,0.437500
2018-07-28T20:54:15.721Z,0.825000
2018-07-28T20:57:15.549Z,0.362500
2018-07-28T21:00:16.028Z,0.325000
2018-07-28T21:03:16.042Z,0.687500
2018-07-28T21:06:15.638Z,0.675000
2018-07-28T21:09:15.303Z,0.862500
2018-07-28T21:12:15.657Z,0.362500
2018-07-28T21:15:15.978Z,0.462500
2018-07-28T21:18:15.410Z,0.437500
2018-07-28T21:21:15.203Z,0.887500
2018-07-28T21:24:15.512Z,1.000000
2018-07-28T21:27:15.713Z,0.775000
2018-07-28T21:30:15.063Z,0.425000
2018-07-28T21:33:15.357Z,0.275000
2018-07-28T21:36:15.519Z,0.750000
2018-07-28T21:39:15.854Z,0.587500
2018-07-28T21:42:15.210Z,1.387500
2018-07-28T21:45:15.402Z,0.750000
2018-07-28T21:51:15.879Z,1.212500
2018-07-28T21:54:15.163Z,0.687500
2018-07-28T21:57:15.346Z,0.562500
2018-07-28T22:00:15.886Z,0.487500
2018-07-28T22:03:15.972Z,0.287500
2018-07-28T22:06:15.970Z,0.425000
2018-07-28T22:09:17.021Z,0.900000
2018-07-28T22:12:15.264Z,1.500000
2018-07-28T22:15:15.381Z,0.575000
2018-07-28T22:18:15.216Z,0.962500
2018-07-28T22:21:15.349Z,0.362500
2018-07-28T22:24:16.004Z,0.837500
2018-07-28T22:27:15.490Z,0.587500
2018-07-28T22:30:15.542Z,0.750000
2018-07-28T22:33:16.030Z,0.475000
2018-07-28T22:36:15.603Z,0.675000
2018-07-28T22:39:15.728Z,0.412500
2018-07-28T22:42:15.638Z,1.475000
2018-07-28T22:45:15.875Z,0.750000
2018-07-28T22:48:15.558Z,0.300000
2018-07-28T22:51:15.360Z,0.487500
2018-07-28T22:54:15.281Z,0.637500
2018-07-28T22:57:16.219Z,0.850000
2018-07-28T23:00:15.450Z,0.387500
2018-07-28T23:03:15.659Z,0.537500
2018-07-28T23:06:15.961Z,2.362500
2018-07-28T23:09:15.982Z,0.725000
2018-07-28T23:12:15.899Z,0.800000
2018-07-28T23:15:15.995Z,0.625000
2018-07-28T23:18:16.098Z,0.550000
2018-07-28T23:21:15.637Z,0.737500
2018-07-28T23:24:15.885Z,0.962500
2018-07-28T23:27:15.868Z,1.600000
2018-07-28T23:30:15.378Z,0.387500
2018-07-28T23:33:15.747Z,0.825000
2018-07-28T23:36:15.135Z,0.337500
2018-07-28T23:39:15.875Z,0.662500
2018-07-28T23:42:15.522Z,0.687500
2018-07-28T23:45:15.313Z,0.387500
2018-07-28T23:48:15.777Z,0.300000
2018-07-28T23:51:15.527Z,0.775000
2018-07-28T23:54:15.048Z,0.400000
2018-07-28T23:57:15.430Z,0.375000
